sensor_id;sensor_type;location;lat;lon;timestamp;pressure;altitude;pressure_sealevel;temperature
79053;BMP280;68451;49.510;6.026;2023-07-31T00:00:07;98030.91;;;17.73
79053;BMP280;68451;49.510;6.026;2023-07-31T00:02:34;98062.06;;;17.92
79053;BMP280;68451;49.510;6.026;2023-07-31T00:05:00;97895.81;;;16.80
79053;BMP280;68451;49.510;6.026;2023-07-31T00:07:26;98069.19;;;17.91
79053;BMP280;68451;49.510;6.026;2023-07-31T00:09:52;98066.03;;;17.89
79053;BMP280;68451;49.510;6.026;2023-07-31T00:12:19;98036.19;;;17.68
79053;BMP280;68451;49.510;6.026;2023-07-31T00:14:44;98035.16;;;17.69
79053;BMP280;68451;49.510;6.026;2023-07-31T00:17:10;97948.56;;;17.11
79053;BMP280;68451;49.510;6.026;2023-07-31T00:19:35;98042.81;;;17.66
79053;BMP280;68451;49.510;6.026;2023-07-31T00:22:01;98056.81;;;17.71
79053;BMP280;68451;49.510;6.026;2023-07-31T00:24:26;98020.91;;;17.60
79053;BMP280;68451;49.510;6.026;2023-07-31T00:26:52;98023.28;;;17.62
79053;BMP280;68451;49.510;6.026;2023-07-31T00:29:17;98037.78;;;17.74
79053;BMP280;68451;49.510;6.026;2023-07-31T00:31:42;98044.13;;;17.78
79053;BMP280;68451;49.510;6.026;2023-07-31T00:34:08;98009.00;;;17.53
79053;BMP280;68451;49.510;6.026;2023-07-31T00:36:33;98040.41;;;17.59
79053;BMP280;68451;49.510;6.026;2023-07-31T00:38:59;98025.09;;;17.51
79053;BMP280;68451;49.510;6.026;2023-07-31T00:41:24;98020.09;;;17.50
79053;BMP280;68451;49.510;6.026;2023-07-31T00:43:50;97908.22;;;16.85
79053;BMP280;68451;49.510;6.026;2023-07-31T00:46:15;98027.72;;;17.56
79053;BMP280;68451;49.510;6.026;2023-07-31T00:48:41;97992.91;;;17.29
79053;BMP280;68451;49.510;6.026;2023-07-31T00:51:07;97903.22;;;16.78
79053;BMP280;68451;49.510;6.026;2023-07-31T00:53:34;98021.16;;;17.49
79053;BMP280;68451;49.510;6.026;2023-07-31T00:55:59;97997.13;;;17.35
79053;BMP280;68451;49.510;6.026;2023-07-31T00:58:24;97984.97;;;17.34
79053;BMP280;68451;49.510;6.026;2023-07-31T01:00:50;97891.59;;;16.74
79053;BMP280;68451;49.510;6.026;2023-07-31T01:03:16;97845.94;;;16.53
79053;BMP280;68451;49.510;6.026;2023-07-31T01:05:57;98009.53;;;17.60
79053;BMP280;68451;49.510;6.026;2023-07-31T01:11:21;97962.28;;;17.33
79053;BMP280;68451;49.510;6.026;2023-07-31T01:13:50;98005.06;;;17.60
79053;BMP280;68451;49.510;6.026;2023-07-31T01:16:16;97918.50;;;17.12
79053;BMP280;68451;49.510;6.026;2023-07-31T01:18:42;98008.47;;;17.56
79053;BMP280;68451;49.510;6.026;2023-07-31T01:26:57;97861.56;;;16.60
79053;BMP280;68451;49.510;6.026;2023-07-31T01:32:09;97964.91;;;17.28
79053;BMP280;68451;49.510;6.026;2023-07-31T01:34:36;97974.19;;;17.35
79053;BMP280;68451;49.510;6.026;2023-07-31T01:37:02;97953.84;;;17.16
79053;BMP280;68451;49.510;6.026;2023-07-31T01:39:28;97994.22;;;17.36
79053;BMP280;68451;49.510;6.026;2023-07-31T01:41:53;97801.63;;;16.10
79053;BMP280;68451;49.510;6.026;2023-07-31T01:44:19;97971.28;;;17.27
79053;BMP280;68451;49.510;6.026;2023-07-31T01:46:44;97985.53;;;17.31
79053;BMP280;68451;49.510;6.026;2023-07-31T01:49:10;97973.38;;;17.20
79053;BMP280;68451;49.510;6.026;2023-07-31T01:51:35;97978.66;;;17.30
79053;BMP280;68451;49.510;6.026;2023-07-31T01:54:01;97916.38;;;16.83
79053;BMP280;68451;49.510;6.026;2023-07-31T01:56:27;97969.94;;;17.14
79053;BMP280;68451;49.510;6.026;2023-07-31T01:58:53;97964.94;;;17.08
79053;BMP280;68451;49.510;6.026;2023-07-31T02:01:18;97948.59;;;17.00
79053;BMP280;68451;49.510;6.026;2023-07-31T02:03:43;97962.28;;;17.08
79053;BMP280;68451;49.510;6.026;2023-07-31T02:06:09;97882.09;;;16.58
79053;BMP280;68451;49.510;6.026;2023-07-31T02:08:34;97816.09;;;16.07
79053;BMP280;68451;49.510;6.026;2023-07-31T02:11:00;97961.50;;;17.02
79053;BMP280;68451;49.510;6.026;2023-07-31T02:13:25;97970.72;;;17.10
79053;BMP280;68451;49.510;6.026;2023-07-31T02:15:51;97958.06;;;16.86
79053;BMP280;68451;49.510;6.026;2023-07-31T02:18:17;97945.66;;;16.82
79053;BMP280;68451;49.510;6.026;2023-07-31T02:20:42;97958.56;;;16.88
79053;BMP280;68451;49.510;6.026;2023-07-31T02:23:08;97974.41;;;16.98
79053;BMP280;68451;49.510;6.026;2023-07-31T02:25:33;97950.13;;;16.81
79053;BMP280;68451;49.510;6.026;2023-07-31T02:27:59;97973.88;;;16.96
79053;BMP280;68451;49.510;6.026;2023-07-31T02:30:25;97883.34;;;16.40
79053;BMP280;68451;49.510;6.026;2023-07-31T02:32:50;97952.78;;;16.81
79053;BMP280;68451;49.510;6.026;2023-07-31T02:35:16;97940.63;;;16.75
79053;BMP280;68451;49.510;6.026;2023-07-31T02:37:42;97910.53;;;16.56
79053;BMP280;68451;49.510;6.026;2023-07-31T02:40:08;97720.59;;;15.30
79053;BMP280;68451;49.510;6.026;2023-07-31T02:42:34;97819.50;;;15.93
79053;BMP280;68451;49.510;6.026;2023-07-31T02:44:59;97845.63;;;16.09
79053;BMP280;68451;49.510;6.026;2023-07-31T02:47:24;97880.19;;;16.33
79053;BMP280;68451;49.510;6.026;2023-07-31T02:49:50;97962.00;;;16.89
79053;BMP280;68451;49.510;6.026;2023-07-31T02:52:15;97954.34;;;16.87
79053;BMP280;68451;49.510;6.026;2023-07-31T02:54:41;97964.91;;;16.92
79053;BMP280;68451;49.510;6.026;2023-07-31T02:57:06;97924.28;;;16.68
79053;BMP280;68451;49.510;6.026;2023-07-31T02:59:32;97933.25;;;16.77
79053;BMP280;68451;49.510;6.026;2023-07-31T03:01:57;97934.31;;;16.81
79053;BMP280;68451;49.510;6.026;2023-07-31T03:04:23;97811.38;;;16.04
79053;BMP280;68451;49.510;6.026;2023-07-31T03:06:48;97921.91;;;16.72
79053;BMP280;68451;49.510;6.026;2023-07-31T03:09:14;97717.72;;;15.41
79053;BMP280;68451;49.510;6.026;2023-07-31T03:11:39;97950.94;;;16.92
79053;BMP280;68451;49.510;6.026;2023-07-31T03:14:05;97948.56;;;16.90
79053;BMP280;68451;49.510;6.026;2023-07-31T03:16:30;97925.59;;;16.76
79053;BMP280;68451;49.510;6.026;2023-07-31T03:18:55;97911.63;;;16.70
79053;BMP280;68451;49.510;6.026;2023-07-31T03:21:21;97940.41;;;16.87
79053;BMP280;68451;49.510;6.026;2023-07-31T03:23:46;97689.81;;;15.30
79053;BMP280;68451;49.510;6.026;2023-07-31T03:26:12;97939.59;;;16.96
79053;BMP280;68451;49.510;6.026;2023-07-31T03:28:37;97939.34;;;16.93
79053;BMP280;68451;49.510;6.026;2023-07-31T03:31:03;97872.84;;;16.55
79053;BMP280;68451;49.510;6.026;2023-07-31T03:33:28;97909.53;;;16.67
79053;BMP280;68451;49.510;6.026;2023-07-31T03:35:54;97930.63;;;16.82
79053;BMP280;68451;49.510;6.026;2023-07-31T03:38:19;97926.66;;;16.80
79053;BMP280;68451;49.510;6.026;2023-07-31T03:40:45;97823.78;;;16.14
79053;BMP280;68451;49.510;6.026;2023-07-31T03:43:12;97857.25;;;16.24
79053;BMP280;68451;49.510;6.026;2023-07-31T03:45:37;97896.00;;;16.43
79053;BMP280;68451;49.510;6.026;2023-07-31T03:48:03;97896.28;;;16.47
79053;BMP280;68451;49.510;6.026;2023-07-31T03:50:29;97906.81;;;16.52
79053;BMP280;68451;49.510;6.026;2023-07-31T03:52:55;97898.63;;;16.38
79053;BMP280;68451;49.510;6.026;2023-07-31T03:55:20;97840.59;;;16.03
79053;BMP280;68451;49.510;6.026;2023-07-31T03:57:47;97897.06;;;16.37
79053;BMP280;68451;49.510;6.026;2023-07-31T04:00:13;97907.31;;;16.39
79053;BMP280;68451;49.510;6.026;2023-07-31T04:02:38;97920.78;;;16.47
79053;BMP280;68451;49.510;6.026;2023-07-31T04:05:04;97809.94;;;15.72
79053;BMP280;68451;49.510;6.026;2023-07-31T04:07:30;97806.00;;;15.69
79053;BMP280;68451;49.510;6.026;2023-07-31T04:09:56;97899.94;;;16.36
79053;BMP280;68451;49.510;6.026;2023-07-31T04:12:22;97884.59;;;16.18
79053;BMP280;68451;49.510;6.026;2023-07-31T04:14:47;97893.59;;;16.27
79053;BMP280;68451;49.510;6.026;2023-07-31T04:17:13;97907.56;;;16.27
79053;BMP280;68451;49.510;6.026;2023-07-31T04:19:39;97861.38;;;15.99
79053;BMP280;68451;49.510;6.026;2023-07-31T04:22:04;97905.47;;;16.29
79053;BMP280;68451;49.510;6.026;2023-07-31T04:24:30;97909.16;;;16.28
79053;BMP280;68451;49.510;6.026;2023-07-31T04:26:55;97906.50;;;16.23
79053;BMP280;68451;49.510;6.026;2023-07-31T04:29:21;97858.72;;;15.94
79053;BMP280;68451;49.510;6.026;2023-07-31T04:31:48;97867.44;;;16.00
79053;BMP280;68451;49.510;6.026;2023-07-31T04:34:14;97880.34;;;15.96
79053;BMP280;68451;49.510;6.026;2023-07-31T04:36:39;97894.03;;;16.03
79053;BMP280;68451;49.510;6.026;2023-07-31T04:39:05;97872.94;;;15.98
79053;BMP280;68451;49.510;6.026;2023-07-31T04:41:30;97888.78;;;16.08
79053;BMP280;68451;49.510;6.026;2023-07-31T04:43:56;97892.75;;;16.06
79053;BMP280;68451;49.510;6.026;2023-07-31T04:46:21;97886.16;;;16.08
79053;BMP280;68451;49.510;6.026;2023-07-31T04:48:47;97885.94;;;16.20
79053;BMP280;68451;49.510;6.026;2023-07-31T04:51:12;97735.31;;;15.26
79053;BMP280;68451;49.510;6.026;2023-07-31T04:53:38;97737.41;;;15.29
79053;BMP280;68451;49.510;6.026;2023-07-31T04:56:04;97867.75;;;16.13
79053;BMP280;68451;49.510;6.026;2023-07-31T04:58:30;97876.72;;;16.18
79053;BMP280;68451;49.510;6.026;2023-07-31T05:00:55;97873.53;;;16.21
79053;BMP280;68451;49.510;6.026;2023-07-31T05:03:20;97882.53;;;16.25
79053;BMP280;68451;49.510;6.026;2023-07-31T05:05:47;97870.94;;;16.26
79053;BMP280;68451;49.510;6.026;2023-07-31T05:08:12;97763.88;;;15.69
79053;BMP280;68451;49.510;6.026;2023-07-31T05:10:38;97857.25;;;16.39
79053;BMP280;68451;49.510;6.026;2023-07-31T05:13:04;97833.28;;;16.30
79053;BMP280;68451;49.510;6.026;2023-07-31T05:15:29;97857.25;;;16.44
79053;BMP280;68451;49.510;6.026;2023-07-31T05:17:55;97850.41;;;16.33
79053;BMP280;68451;49.510;6.026;2023-07-31T05:20:21;97836.19;;;16.29
79053;BMP280;68451;49.510;6.026;2023-07-31T05:22:46;97848.84;;;16.37
79053;BMP280;68451;49.510;6.026;2023-07-31T05:25:12;97826.66;;;16.18
79053;BMP280;68451;49.510;6.026;2023-07-31T05:27:38;97846.75;;;16.54
79053;BMP280;68451;49.510;6.026;2023-07-31T05:30:04;97858.13;;;16.65
79053;BMP280;68451;49.510;6.026;2023-07-31T05:32:32;97828.81;;;16.41
79053;BMP280;68451;49.510;6.026;2023-07-31T05:34:57;97857.59;;;16.73
79053;BMP280;68451;49.510;6.026;2023-07-31T05:37:23;97865.75;;;16.96
79053;BMP280;68451;49.510;6.026;2023-07-31T05:39:49;97757.69;;;16.46
79053;BMP280;68451;49.510;6.026;2023-07-31T05:42:15;97878.09;;;17.41
79053;BMP280;68451;49.510;6.026;2023-07-31T05:44:41;97855.13;;;17.62
79053;BMP280;68451;49.510;6.026;2023-07-31T05:47:06;97873.59;;;18.21
79053;BMP280;68451;49.510;6.026;2023-07-31T05:49:33;97618.75;;;16.77
79053;BMP280;68451;49.510;6.026;2023-07-31T05:51:59;97876.31;;;18.94
79053;BMP280;68451;49.510;6.026;2023-07-31T05:54:24;97867.88;;;19.21
79053;BMP280;68451;49.510;6.026;2023-07-31T05:56:50;97850.50;;;19.39
79053;BMP280;68451;49.510;6.026;2023-07-31T05:59:15;97841.56;;;19.30
79053;BMP280;68451;49.510;6.026;2023-07-31T06:01:41;97833.06;;;19.09
79053;BMP280;68451;49.510;6.026;2023-07-31T06:04:06;97832.88;;;19.00
79053;BMP280;68451;49.510;6.026;2023-07-31T06:06:32;97861.34;;;19.13
79053;BMP280;68451;49.510;6.026;2023-07-31T06:08:57;97831.72;;;18.83
79053;BMP280;68451;49.510;6.026;2023-07-31T06:11:23;97744.91;;;18.22
79053;BMP280;68451;49.510;6.026;2023-07-31T06:13:48;97858.38;;;18.86
79053;BMP280;68451;49.510;6.026;2023-07-31T06:16:15;97859.75;;;18.84
79053;BMP280;68451;49.510;6.026;2023-07-31T06:18:41;97814.47;;;18.51
79053;BMP280;68451;49.510;6.026;2023-07-31T06:21:08;97856.34;;;18.78
79053;BMP280;68451;49.510;6.026;2023-07-31T06:23:33;97871.88;;;18.85
79053;BMP280;68451;49.510;6.026;2023-07-31T06:25:59;97758.22;;;18.12
79053;BMP280;68451;49.510;6.026;2023-07-31T06:28:28;97853.13;;;18.81
79053;BMP280;68451;49.510;6.026;2023-07-31T06:30:54;97808.09;;;18.57
79053;BMP280;68451;49.510;6.026;2023-07-31T06:33:20;97860.28;;;18.81
79053;BMP280;68451;49.510;6.026;2023-07-31T06:35:45;97726.66;;;17.92
79053;BMP280;68451;49.510;6.026;2023-07-31T06:38:11;97849.84;;;18.65
79053;BMP280;68451;49.510;6.026;2023-07-31T06:40:36;97836.69;;;18.55
79053;BMP280;68451;49.510;6.026;2023-07-31T06:43:02;97824.56;;;18.44
79053;BMP280;68451;49.510;6.026;2023-07-31T06:45:34;97812.69;;;18.42
79053;BMP280;68451;49.510;6.026;2023-07-31T06:48:01;97807.66;;;18.45
79053;BMP280;68451;49.510;6.026;2023-07-31T06:50:28;97812.00;;;18.70
79053;BMP280;68451;49.510;6.026;2023-07-31T06:52:53;97805.81;;;18.79
79053;BMP280;68451;49.510;6.026;2023-07-31T06:55:20;97828.38;;;19.01
79053;BMP280;68451;49.510;6.026;2023-07-31T06:57:48;97681.53;;;18.17
79053;BMP280;68451;49.510;6.026;2023-07-31T07:00:14;97588.78;;;17.56
79053;BMP280;68451;49.510;6.026;2023-07-31T07:02:40;97835.72;;;19.09
79053;BMP280;68451;49.510;6.026;2023-07-31T07:05:06;97809.06;;;19.00
79053;BMP280;68451;49.510;6.026;2023-07-31T07:07:33;97819.47;;;19.15
79053;BMP280;68451;49.510;6.026;2023-07-31T07:09:58;97812.81;;;19.47
79053;BMP280;68451;49.510;6.026;2023-07-31T07:12:25;97812.22;;;19.55
79053;BMP280;68451;49.510;6.026;2023-07-31T07:14:50;97830.94;;;19.63
79053;BMP280;68451;49.510;6.026;2023-07-31T07:17:18;97820.59;;;19.62
79053;BMP280;68451;49.510;6.026;2023-07-31T07:19:44;97814.91;;;19.74
79053;BMP280;68451;49.510;6.026;2023-07-31T07:22:11;97802.34;;;19.60
79053;BMP280;68451;49.510;6.026;2023-07-31T07:24:36;97793.28;;;19.66
79053;BMP280;68451;49.510;6.026;2023-07-31T07:27:02;97813.06;;;19.93
79053;BMP280;68451;49.510;6.026;2023-07-31T07:29:28;97792.53;;;20.03
79053;BMP280;68451;49.510;6.026;2023-07-31T07:31:53;97761.59;;;19.99
79053;BMP280;68451;49.510;6.026;2023-07-31T07:34:19;97782.84;;;20.31
79053;BMP280;68451;49.510;6.026;2023-07-31T07:36:44;97792.81;;;20.72
79053;BMP280;68451;49.510;6.026;2023-07-31T07:39:11;97795.72;;;20.89
79053;BMP280;68451;49.510;6.026;2023-07-31T07:41:36;97787.09;;;20.97
79053;BMP280;68451;49.510;6.026;2023-07-31T07:44:02;97669.00;;;20.40
79053;BMP280;68451;49.510;6.026;2023-07-31T07:46:27;97779.19;;;21.24
79053;BMP280;68451;49.510;6.026;2023-07-31T07:48:53;97787.34;;;21.41
79053;BMP280;68451;49.510;6.026;2023-07-31T07:51:18;97790.94;;;21.86
79053;BMP280;68451;49.510;6.026;2023-07-31T07:53:44;97782.16;;;22.36
79053;BMP280;68451;49.510;6.026;2023-07-31T07:56:09;97786.97;;;22.78
79053;BMP280;68451;49.510;6.026;2023-07-31T07:58:35;97793.16;;;22.87
79053;BMP280;68451;49.510;6.026;2023-07-31T08:01:00;97776.56;;;22.90
79053;BMP280;68451;49.510;6.026;2023-07-31T08:03:25;97751.97;;;22.85
79053;BMP280;68451;49.510;6.026;2023-07-31T08:05:51;97758.84;;;23.16
79053;BMP280;68451;49.510;6.026;2023-07-31T08:08:17;97747.06;;;23.17
79053;BMP280;68451;49.510;6.026;2023-07-31T08:10:42;97606.53;;;22.18
79053;BMP280;68451;49.510;6.026;2023-07-31T08:13:12;97760.41;;;23.26
79053;BMP280;68451;49.510;6.026;2023-07-31T08:15:41;97652.50;;;22.72
79053;BMP280;68451;49.510;6.026;2023-07-31T08:18:06;97753.94;;;23.58
79053;BMP280;68451;49.510;6.026;2023-07-31T08:20:32;97754.50;;;23.38
79053;BMP280;68451;49.510;6.026;2023-07-31T08:22:57;97763.28;;;23.38
79053;BMP280;68451;49.510;6.026;2023-07-31T08:25:23;97751.84;;;23.38
79053;BMP280;68451;49.510;6.026;2023-07-31T08:27:48;97761.50;;;23.73
79053;BMP280;68451;49.510;6.026;2023-07-31T08:30:14;97722.31;;;23.65
79053;BMP280;68451;49.510;6.026;2023-07-31T08:32:39;97734.72;;;23.78
79053;BMP280;68451;49.510;6.026;2023-07-31T08:35:06;97745.22;;;24.09
79053;BMP280;68451;49.510;6.026;2023-07-31T08:37:32;97744.78;;;24.33
79053;BMP280;68451;49.510;6.026;2023-07-31T08:39:57;97755.00;;;25.03
79053;BMP280;68451;49.510;6.026;2023-07-31T08:42:23;97746.81;;;25.67
79053;BMP280;68451;49.510;6.026;2023-07-31T08:44:51;97631.31;;;25.32
79053;BMP280;68451;49.510;6.026;2023-07-31T08:47:20;97769.56;;;26.56
79053;BMP280;68451;49.510;6.026;2023-07-31T08:49:47;97758.56;;;26.37
79053;BMP280;68451;49.510;6.026;2023-07-31T08:52:19;97763.22;;;26.07
79053;BMP280;68451;49.510;6.026;2023-07-31T08:54:47;97659.22;;;25.43
79053;BMP280;68451;49.510;6.026;2023-07-31T08:57:14;97751.91;;;25.80
79053;BMP280;68451;49.510;6.026;2023-07-31T08:59:41;97754.50;;;25.68
79053;BMP280;68451;49.510;6.026;2023-07-31T09:02:08;97747.16;;;25.27
79053;BMP280;68451;49.510;6.026;2023-07-31T09:04:34;97755.16;;;24.98
79053;BMP280;68451;49.510;6.026;2023-07-31T09:07:03;97755.25;;;24.64
79053;BMP280;68451;49.510;6.026;2023-07-31T09:09:30;97742.16;;;24.79
79053;BMP280;68451;49.510;6.026;2023-07-31T09:11:58;97756.72;;;25.37
79053;BMP280;68451;49.510;6.026;2023-07-31T09:14:25;97729.13;;;25.54
79053;BMP280;68451;49.510;6.026;2023-07-31T09:16:52;97743.84;;;26.10
79053;BMP280;68451;49.510;6.026;2023-07-31T09:19:38;97751.38;;;26.61
79053;BMP280;68451;49.510;6.026;2023-07-31T09:22:05;97753.22;;;26.82
79053;BMP280;68451;49.510;6.026;2023-07-31T09:24:33;97738.16;;;26.65
79053;BMP280;68451;49.510;6.026;2023-07-31T09:27:00;97744.00;;;26.46
79053;BMP280;68451;49.510;6.026;2023-07-31T09:29:27;97732.84;;;26.03
79053;BMP280;68451;49.510;6.026;2023-07-31T09:31:54;97690.81;;;25.41
79053;BMP280;68451;49.510;6.026;2023-07-31T09:34:20;97737.63;;;25.56
79053;BMP280;68451;49.510;6.026;2023-07-31T09:36:53;97737.94;;;25.46
79053;BMP280;68451;49.510;6.026;2023-07-31T09:39:18;97747.28;;;25.39
79053;BMP280;68451;49.510;6.026;2023-07-31T09:41:54;97736.13;;;25.08
79053;BMP280;68451;49.510;6.026;2023-07-31T09:44:19;97733.69;;;24.86
79053;BMP280;68451;49.510;6.026;2023-07-31T09:46:45;97668.34;;;24.11
79053;BMP280;68451;49.510;6.026;2023-07-31T09:49:12;97741.47;;;24.27
79053;BMP280;68451;49.510;6.026;2023-07-31T09:51:39;97738.63;;;23.72
79053;BMP280;68451;49.510;6.026;2023-07-31T09:54:15;97736.31;;;23.40
79053;BMP280;68451;49.510;6.026;2023-07-31T09:56:44;97675.84;;;22.75
79053;BMP280;68451;49.510;6.026;2023-07-31T09:59:15;97698.22;;;22.74
79053;BMP280;68451;49.510;6.026;2023-07-31T10:01:42;97641.59;;;21.98
79053;BMP280;68451;49.510;6.026;2023-07-31T10:04:09;97619.09;;;21.60
79053;BMP280;68451;49.510;6.026;2023-07-31T10:06:35;97766.00;;;22.32
79053;BMP280;68451;49.510;6.026;2023-07-31T10:09:05;97616.56;;;21.19
79053;BMP280;68451;49.510;6.026;2023-07-31T10:11:36;97750.28;;;21.86
79053;BMP280;68451;49.510;6.026;2023-07-31T10:14:04;97742.97;;;21.56
79053;BMP280;68451;49.510;6.026;2023-07-31T10:16:31;97740.41;;;21.51
79053;BMP280;68451;49.510;6.026;2023-07-31T10:18:58;97764.81;;;21.39
79053;BMP280;68451;49.510;6.026;2023-07-31T10:21:24;97766.00;;;21.47
79053;BMP280;68451;49.510;6.026;2023-07-31T10:23:51;97744.06;;;21.27
79053;BMP280;68451;49.510;6.026;2023-07-31T10:26:19;97747.41;;;21.33
79053;BMP280;68451;49.510;6.026;2023-07-31T10:28:46;97764.91;;;21.34
79053;BMP280;68451;49.510;6.026;2023-07-31T10:31:12;97738.91;;;21.04
79053;BMP280;68451;49.510;6.026;2023-07-31T10:33:38;97725.53;;;20.95
79053;BMP280;68451;49.510;6.026;2023-07-31T10:36:18;97740.00;;;21.02
79053;BMP280;68451;49.510;6.026;2023-07-31T10:38:45;97777.00;;;21.26
79053;BMP280;68451;49.510;6.026;2023-07-31T10:41:11;97702.53;;;20.90
79053;BMP280;68451;49.510;6.026;2023-07-31T10:43:39;97736.34;;;21.12
79053;BMP280;68451;49.510;6.026;2023-07-31T10:46:11;97776.53;;;21.38
79053;BMP280;68451;49.510;6.026;2023-07-31T10:48:39;97748.88;;;21.25
79053;BMP280;68451;49.510;6.026;2023-07-31T10:51:08;97699.09;;;21.04
79053;BMP280;68451;49.510;6.026;2023-07-31T10:53:35;97758.13;;;21.28
79053;BMP280;68451;49.510;6.026;2023-07-31T10:56:03;97718.09;;;21.11
79053;BMP280;68451;49.510;6.026;2023-07-31T10:58:30;97717.22;;;21.29
79053;BMP280;68451;49.510;6.026;2023-07-31T11:01:00;97755.56;;;21.64
79053;BMP280;68451;49.510;6.026;2023-07-31T11:03:47;97712.06;;;21.60
79053;BMP280;68451;49.510;6.026;2023-07-31T11:06:15;97736.75;;;21.74
79053;BMP280;68451;49.510;6.026;2023-07-31T11:08:43;97704.84;;;21.74
79053;BMP280;68451;49.510;6.026;2023-07-31T11:11:11;97738.75;;;22.04
79053;BMP280;68451;49.510;6.026;2023-07-31T11:13:49;97762.00;;;22.21
79053;BMP280;68451;49.510;6.026;2023-07-31T11:16:17;97707.06;;;21.94
79053;BMP280;68451;49.510;6.026;2023-07-31T11:18:44;97643.59;;;21.57
79053;BMP280;68451;49.510;6.026;2023-07-31T11:21:13;97750.94;;;22.27
79053;BMP280;68451;49.510;6.026;2023-07-31T11:23:39;97735.97;;;22.09
79053;BMP280;68451;49.510;6.026;2023-07-31T11:26:06;97678.03;;;21.48
79053;BMP280;68451;49.510;6.026;2023-07-31T11:28:34;97696.13;;;21.60
79053;BMP280;68451;49.510;6.026;2023-07-31T11:31:00;97738.19;;;21.80
79053;BMP280;68451;49.510;6.026;2023-07-31T11:33:26;97740.41;;;21.64
79053;BMP280;68451;49.510;6.026;2023-07-31T11:35:52;97733.69;;;21.67
79053;BMP280;68451;49.510;6.026;2023-07-31T11:38:22;97754.34;;;21.70
79053;BMP280;68451;49.510;6.026;2023-07-31T11:40:57;97748.88;;;21.53
79053;BMP280;68451;49.510;6.026;2023-07-31T11:43:23;97780.53;;;21.63
79053;BMP280;68451;49.510;6.026;2023-07-31T11:45:56;97761.94;;;21.49
79053;BMP280;68451;49.510;6.026;2023-07-31T11:48:29;97620.28;;;20.36
79053;BMP280;68451;49.510;6.026;2023-07-31T11:51:00;97761.00;;;20.85
79053;BMP280;68451;49.510;6.026;2023-07-31T11:53:33;97744.97;;;20.77
79053;BMP280;68451;49.510;6.026;2023-07-31T11:56:00;97755.69;;;20.85
79053;BMP280;68451;49.510;6.026;2023-07-31T11:58:27;97717.66;;;20.76
79053;BMP280;68451;49.510;6.026;2023-07-31T12:00:54;97720.94;;;20.87
79053;BMP280;68451;49.510;6.026;2023-07-31T12:03:20;97728.19;;;20.95
79053;BMP280;68451;49.510;6.026;2023-07-31T12:05:49;97696.44;;;20.76
79053;BMP280;68451;49.510;6.026;2023-07-31T12:08:15;97754.94;;;21.12
79053;BMP280;68451;49.510;6.026;2023-07-31T12:10:41;97723.22;;;20.93
79053;BMP280;68451;49.510;6.026;2023-07-31T12:13:12;97611.19;;;20.23
79053;BMP280;68451;49.510;6.026;2023-07-31T12:15:45;97659.19;;;20.68
79053;BMP280;68451;49.510;6.026;2023-07-31T12:18:12;97492.28;;;19.76
79053;BMP280;68451;49.510;6.026;2023-07-31T12:20:46;97711.31;;;21.46
79053;BMP280;68451;49.510;6.026;2023-07-31T12:23:26;97701.34;;;21.65
79053;BMP280;68451;49.510;6.026;2023-07-31T12:26:06;97652.69;;;21.42
79053;BMP280;68451;49.510;6.026;2023-07-31T12:31:05;97654.59;;;21.64
79053;BMP280;68451;49.510;6.026;2023-07-31T12:33:33;97685.19;;;21.97
79053;BMP280;68451;49.510;6.026;2023-07-31T12:36:02;97678.97;;;22.02
79053;BMP280;68451;49.510;6.026;2023-07-31T12:38:28;97631.28;;;21.83
79053;BMP280;68451;49.510;6.026;2023-07-31T12:40:53;97657.19;;;22.13
79053;BMP280;68451;49.510;6.026;2023-07-31T12:43:19;97647.81;;;22.16
79053;BMP280;68451;49.510;6.026;2023-07-31T12:45:44;97665.59;;;22.38
79053;BMP280;68451;49.510;6.026;2023-07-31T12:48:10;97551.78;;;21.86
79053;BMP280;68451;49.510;6.026;2023-07-31T12:50:36;97670.66;;;22.70
79053;BMP280;68451;49.510;6.026;2023-07-31T12:53:02;97642.94;;;22.71
79053;BMP280;68451;49.510;6.026;2023-07-31T12:55:28;97593.69;;;22.51
79053;BMP280;68451;49.510;6.026;2023-07-31T12:57:55;97646.00;;;22.95
79053;BMP280;68451;49.510;6.026;2023-07-31T13:00:21;97648.53;;;23.09
79053;BMP280;68451;49.510;6.026;2023-07-31T13:02:46;97598.22;;;22.90
79053;BMP280;68451;49.510;6.026;2023-07-31T13:05:12;97531.69;;;22.42
79053;BMP280;68451;49.510;6.026;2023-07-31T13:07:38;97627.06;;;23.05
79053;BMP280;68451;49.510;6.026;2023-07-31T13:10:05;97647.31;;;23.24
79053;BMP280;68451;49.510;6.026;2023-07-31T13:12:31;97619.72;;;23.02
79053;BMP280;68451;49.510;6.026;2023-07-31T13:14:57;97626.91;;;22.93
79053;BMP280;68451;49.510;6.026;2023-07-31T13:17:22;97604.00;;;22.75
79053;BMP280;68451;49.510;6.026;2023-07-31T13:19:48;97580.22;;;22.48
79053;BMP280;68451;49.510;6.026;2023-07-31T13:22:14;97627.31;;;22.78
79053;BMP280;68451;49.510;6.026;2023-07-31T13:24:41;97595.56;;;22.51
79053;BMP280;68451;49.510;6.026;2023-07-31T13:27:06;97596.03;;;22.44
79053;BMP280;68451;49.510;6.026;2023-07-31T13:29:32;97608.66;;;22.39
79053;BMP280;68451;49.510;6.026;2023-07-31T13:31:58;97620.75;;;22.45
79053;BMP280;68451;49.510;6.026;2023-07-31T13:34:23;97588.47;;;22.07
79053;BMP280;68451;49.510;6.026;2023-07-31T13:36:49;97592.03;;;21.80
79053;BMP280;68451;49.510;6.026;2023-07-31T13:39:14;97542.44;;;21.44
79053;BMP280;68451;49.510;6.026;2023-07-31T13:41:40;97603.75;;;21.57
79053;BMP280;68451;49.510;6.026;2023-07-31T13:44:05;97588.66;;;21.43
79053;BMP280;68451;49.510;6.026;2023-07-31T13:46:31;97620.41;;;21.49
79053;BMP280;68451;49.510;6.026;2023-07-31T13:49:00;97573.91;;;21.15
79053;BMP280;68451;49.510;6.026;2023-07-31T13:51:26;97566.31;;;21.09
79053;BMP280;68451;49.510;6.026;2023-07-31T13:53:53;97604.94;;;21.28
79053;BMP280;68451;49.510;6.026;2023-07-31T13:56:18;97615.19;;;21.43
79053;BMP280;68451;49.510;6.026;2023-07-31T13:58:44;97626.31;;;21.46
79053;BMP280;68451;49.510;6.026;2023-07-31T14:01:09;97460.81;;;20.42
79053;BMP280;68451;49.510;6.026;2023-07-31T14:03:35;97578.00;;;21.21
79053;BMP280;68451;49.510;6.026;2023-07-31T14:06:01;97613.94;;;21.41
79053;BMP280;68451;49.510;6.026;2023-07-31T14:08:26;97599.38;;;21.38
79053;BMP280;68451;49.510;6.026;2023-07-31T14:10:52;97592.19;;;21.39
79053;BMP280;68451;49.510;6.026;2023-07-31T14:13:18;97525.13;;;21.11
79053;BMP280;68451;49.510;6.026;2023-07-31T14:15:44;97562.53;;;21.37
79053;BMP280;68451;49.510;6.026;2023-07-31T14:18:09;97471.63;;;20.82